Time,TemperatureF,DewpointF,PressureIn,WindDirection,WindDirectionDegrees,WindSpeedMPH,WindSpeedGustMPH,Humidity,HourlyPrecipIn,Conditions,Clouds,dailyrainin,SolarRadiationWatts/m^2,SoftwareType,DateUTC
2013-06-09 00:03:00,76.0,73.0,-100.00,SW,230,7.0,13.0,91,0.00,,,0.00,0.000000,,2013-06-09 04:03:00,
2013-06-09 00:33:00,76.0,73.0,-100.00,SW,233,7.0,14.0,91,0.00,,,0.00,0.000000,,2013-06-09 04:33:00,
2013-06-09 00:43:00,76.0,73.0,-100.00,SW,233,7.0,14.0,91,0.00,,,0.00,0.000000,,2013-06-09 04:43:00,
2013-06-09 00:53:00,76.0,73.0,-100.00,SW,233,7.0,14.0,91,0.00,,,0.00,0.000000,,2013-06-09 04:53:00,
2013-06-09 01:02:00,76.0,73.0,-100.00,SW,233,7.0,14.0,91,0.00,,,0.00,0.000000,,2013-06-09 05:02:00,
2013-06-09 01:32:00,75.0,73.0,-100.00,SW,225,4.0,11.0,92,0.00,,,-99.99,0.000000,,2013-06-09 05:32:00,
2013-06-09 01:42:00,75.0,73.0,-100.00,SW,225,4.0,11.0,92,0.00,,,-99.99,0.000000,,2013-06-09 05:42:00,
2013-06-09 01:52:00,75.0,73.0,-100.00,SW,225,4.0,11.0,92,0.00,,,-99.99,0.000000,,2013-06-09 05:52:00,
2013-06-09 02:02:00,75.0,73.0,-100.00,SW,225,4.0,11.0,92,0.00,,,-99.99,0.000000,,2013-06-09 06:02:00,
2013-06-09 02:32:00,76.0,74.0,-100.00,SW,220,6.0,11.0,92,0.00,,,0.00,0.000000,,2013-06-09 06:32:00,
2013-06-09 02:42:00,76.0,74.0,-100.00,SW,220,6.0,11.0,92,0.00,,,0.00,0.000000,,2013-06-09 06:42:00,
2013-06-09 02:52:00,76.0,74.0,-100.00,SW,220,6.0,11.0,92,0.00,,,0.00,0.000000,,2013-06-09 06:52:00,
2013-06-09 03:02:00,76.0,74.0,-100.00,SW,220,6.0,11.0,92,0.00,,,0.00,0.000000,,2013-06-09 07:02:00,
2013-06-09 03:32:00,76.0,74.0,-100.00,SW,226,5.0,13.0,92,0.00,,,0.00,0.000000,,2013-06-09 07:32:00,
2013-06-09 03:42:00,76.0,74.0,-100.00,SW,226,5.0,13.0,92,0.00,,,0.00,0.000000,,2013-06-09 07:42:00,
2013-06-09 03:53:00,76.0,74.0,-100.00,SW,226,5.0,13.0,92,0.00,,,0.00,0.000000,,2013-06-09 07:53:00,
2013-06-09 04:02:00,76.0,74.0,-100.00,SW,226,5.0,13.0,92,0.00,,,0.00,0.000000,,2013-06-09 08:02:00,
2013-06-09 04:32:00,75.0,73.0,-100.00,SSW,212,4.0,10.0,92,0.00,,,0.00,0.000000,,2013-06-09 08:32:00,
2013-06-09 04:42:00,75.0,73.0,-100.00,SSW,212,4.0,10.0,92,0.00,,,0.00,0.000000,,2013-06-09 08:42:00,
2013-06-09 04:53:00,75.0,73.0,-100.00,SSW,212,4.0,10.0,92,0.00,,,0.00,0.000000,,2013-06-09 08:53:00,
2013-06-09 05:02:00,75.0,73.0,-100.00,SSW,212,4.0,10.0,92,0.00,,,0.00,0.000000,,2013-06-09 09:02:00,
2013-06-09 05:33:00,75.0,73.0,-100.00,SSW,211,3.0,8.0,93,0.00,,,0.00,0.000000,,2013-06-09 09:33:00,
2013-06-09 05:43:00,75.0,73.0,-100.00,SSW,211,3.0,8.0,93,0.00,,,0.00,0.000000,,2013-06-09 09:43:00,
2013-06-09 05:53:00,75.0,73.0,-100.00,SSW,211,3.0,8.0,93,0.00,,,0.00,0.000000,,2013-06-09 09:53:00,
2013-06-09 06:03:00,75.0,73.0,-100.00,SSW,211,3.0,8.0,93,0.00,,,0.00,0.000000,,2013-06-09 10:03:00,
2013-06-09 06:32:00,75.0,73.0,-100.00,SSW,210,3.0,7.0,93,0.00,,,0.00,2.000000,,2013-06-09 10:32:00,
2013-06-09 06:43:00,75.0,73.0,-100.00,SSW,210,3.0,7.0,93,0.00,,,0.00,2.000000,,2013-06-09 10:43:00,
2013-06-09 06:52:00,75.0,73.0,-100.00,SSW,210,3.0,7.0,93,0.00,,,0.00,2.000000,,2013-06-09 10:52:00,
2013-06-09 07:02:00,75.0,73.0,-100.00,SSW,210,3.0,7.0,93,0.00,,,0.00,2.000000,,2013-06-09 11:02:00,
2013-06-09 07:32:00,76.0,74.0,-100.00,SW,217,5.0,10.0,93,0.00,,,0.00,49.000000,,2013-06-09 11:32:00,
2013-06-09 07:42:00,76.0,74.0,-100.00,SW,217,5.0,10.0,93,0.00,,,0.00,49.000000,,2013-06-09 11:42:00,
2013-06-09 07:53:00,76.0,74.0,-100.00,SW,217,5.0,10.0,93,0.00,,,0.00,49.000000,,2013-06-09 11:53:00,
2013-06-09 08:02:00,76.0,74.0,-100.00,SW,217,5.0,10.0,93,0.00,,,0.00,49.000000,,2013-06-09 12:02:00,
2013-06-09 08:32:00,78.0,73.0,-100.00,SW,222,5.0,12.0,86,0.00,,,0.00,258.000000,,2013-06-09 12:32:00,
2013-06-09 08:42:00,78.0,73.0,-100.00,SW,222,5.0,12.0,86,0.00,,,0.00,258.000000,,2013-06-09 12:42:00,
2013-06-09 08:53:00,78.0,73.0,-100.00,SW,222,5.0,12.0,86,0.00,,,0.00,258.000000,,2013-06-09 12:53:00,
2013-06-09 09:02:00,78.0,73.0,-100.00,SW,222,5.0,12.0,86,0.00,,,0.00,258.000000,,2013-06-09 13:02:00,
2013-06-09 09:32:00,79.0,74.0,-100.00,WSW,241,4.0,10.0,84,0.00,,,0.00,242.000000,,2013-06-09 13:32:00,
2013-06-09 09:42:00,79.0,74.0,-100.00,WSW,241,4.0,10.0,84,0.00,,,0.00,242.000000,,2013-06-09 13:42:00,
2013-06-09 09:52:00,79.0,74.0,-100.00,WSW,241,4.0,10.0,84,0.00,,,0.00,242.000000,,2013-06-09 13:52:00,
2013-06-09 10:02:00,79.0,74.0,-100.00,WSW,241,4.0,10.0,84,0.00,,,0.00,242.000000,,2013-06-09 14:02:00,
2013-06-09 10:32:00,82.0,72.0,-100.00,WSW,251,5.0,11.0,71,0.00,,,0.00,591.000000,,2013-06-09 14:32:00,
2013-06-09 10:43:00,82.0,72.0,-100.00,WSW,251,5.0,11.0,71,0.00,,,0.00,591.000000,,2013-06-09 14:43:00,
2013-06-09 10:52:00,82.0,72.0,-100.00,WSW,251,5.0,11.0,71,0.00,,,0.00,591.000000,,2013-06-09 14:52:00,
2013-06-09 11:02:00,82.0,72.0,-100.00,WSW,251,5.0,11.0,71,0.00,,,0.00,591.000000,,2013-06-09 15:02:00,
2013-06-09 11:33:00,84.0,71.0,-100.00,SW,221,4.0,11.0,65,0.00,,,0.00,745.000000,,2013-06-09 15:33:00,
2013-06-09 11:44:00,84.0,71.0,-100.00,SW,221,4.0,11.0,65,0.00,,,0.00,745.000000,,2013-06-09 15:44:00,
2013-06-09 11:53:00,84.0,71.0,-100.00,SW,221,4.0,11.0,65,0.00,,,0.00,745.000000,,2013-06-09 15:53:00,
2013-06-09 12:03:00,84.0,71.0,-100.00,SW,221,4.0,11.0,65,0.00,,,0.00,745.000000,,2013-06-09 16:03:00,
2013-06-09 12:33:00,83.0,75.0,-100.00,South,177,8.0,12.0,76,0.00,,,0.00,738.000000,,2013-06-09 16:33:00,
2013-06-09 12:43:00,83.0,75.0,-100.00,South,177,8.0,12.0,76,0.00,,,0.00,738.000000,,2013-06-09 16:43:00,
2013-06-09 12:53:00,83.0,75.0,-100.00,South,177,8.0,12.0,76,0.00,,,0.00,738.000000,,2013-06-09 16:53:00,
2013-06-09 13:03:00,83.0,75.0,-100.00,South,177,8.0,12.0,76,0.00,,,0.00,738.000000,,2013-06-09 17:03:00,
2013-06-09 13:32:00,83.0,74.0,-100.00,SSW,198,8.0,15.0,74,0.00,,,0.00,863.000000,,2013-06-09 17:32:00,
2013-06-09 13:42:00,83.0,74.0,-100.00,SSW,198,8.0,15.0,74,0.00,,,0.00,863.000000,,2013-06-09 17:42:00,
2013-06-09 13:52:00,83.0,74.0,-100.00,SSW,198,8.0,15.0,74,0.00,,,0.00,863.000000,,2013-06-09 17:52:00,
2013-06-09 14:02:00,83.0,74.0,-100.00,SSW,198,8.0,15.0,74,0.00,,,0.00,863.000000,,2013-06-09 18:02:00,
2013-06-09 14:33:00,82.0,75.0,-100.00,SSW,206,8.0,13.0,79,0.00,,,0.00,716.000000,,2013-06-09 18:33:00,
2013-06-09 14:42:00,82.0,75.0,-100.00,SSW,206,8.0,13.0,79,0.00,,,0.00,716.000000,,2013-06-09 18:42:00,
2013-06-09 14:52:00,82.0,75.0,-100.00,SSW,206,8.0,13.0,79,0.00,,,0.00,716.000000,,2013-06-09 18:52:00,
2013-06-09 15:02:00,82.0,75.0,-100.00,SSW,206,8.0,13.0,79,0.00,,,0.00,716.000000,,2013-06-09 19:02:00,
2013-06-09 15:32:00,81.0,75.0,-100.00,South,184,8.0,14.0,81,0.00,,,0.00,659.000000,,2013-06-09 19:32:00,
2013-06-09 15:43:00,81.0,75.0,-100.00,South,184,8.0,14.0,81,0.00,,,0.00,659.000000,,2013-06-09 19:43:00,
2013-06-09 15:52:00,81.0,75.0,-100.00,South,184,8.0,14.0,81,0.00,,,0.00,659.000000,,2013-06-09 19:52:00,
2013-06-09 16:03:00,81.0,75.0,-100.00,South,184,8.0,14.0,81,0.00,,,0.00,659.000000,,2013-06-09 20:03:00,
2013-06-09 16:32:00,80.0,74.0,-100.00,SSE,166,7.0,14.0,83,0.00,,,0.00,453.000000,,2013-06-09 20:32:00,
2013-06-09 16:42:00,80.0,74.0,-100.00,SSE,166,7.0,14.0,83,0.00,,,0.00,453.000000,,2013-06-09 20:42:00,
2013-06-09 16:52:00,80.0,74.0,-100.00,SSE,166,7.0,14.0,83,0.00,,,0.00,453.000000,,2013-06-09 20:52:00,
2013-06-09 17:03:00,80.0,74.0,-100.00,SSE,166,7.0,14.0,83,0.00,,,0.00,453.000000,,2013-06-09 21:03:00,
2013-06-09 17:33:00,80.0,75.0,-100.00,SSE,167,7.0,12.0,85,0.00,,,0.00,297.000000,,2013-06-09 21:33:00,
2013-06-09 17:44:00,80.0,75.0,-100.00,SSE,167,7.0,12.0,85,0.00,,,0.00,297.000000,,2013-06-09 21:44:00,
2013-06-09 17:53:00,80.0,75.0,-100.00,SSE,167,7.0,12.0,85,0.00,,,0.00,297.000000,,2013-06-09 21:53:00,
2013-06-09 18:02:00,80.0,75.0,-100.00,SSE,167,7.0,12.0,85,0.00,,,0.00,297.000000,,2013-06-09 22:02:00,
2013-06-09 18:33:00,77.0,72.0,-100.00,South,179,10.0,19.0,86,0.00,,,0.00,154.000000,,2013-06-09 22:33:00,
2013-06-09 18:42:00,77.0,72.0,-100.00,South,179,10.0,19.0,86,0.00,,,0.00,154.000000,,2013-06-09 22:42:00,
2013-06-09 18:52:00,77.0,72.0,-100.00,South,179,10.0,19.0,86,0.00,,,0.00,154.000000,,2013-06-09 22:52:00,
2013-06-09 19:02:00,77.0,72.0,-100.00,South,179,10.0,19.0,86,0.00,,,0.00,154.000000,,2013-06-09 23:02:00,
2013-06-09 19:32:00,76.0,72.0,-100.00,SSW,195,7.0,17.0,86,0.00,,,0.00,74.000000,,2013-06-09 23:32:00,
2013-06-09 19:43:00,76.0,72.0,-100.00,SSW,195,7.0,17.0,86,0.00,,,0.00,74.000000,,2013-06-09 23:43:00,
2013-06-09 19:52:00,76.0,72.0,-100.00,SSW,195,7.0,17.0,86,0.00,,,0.00,74.000000,,2013-06-09 23:52:00,
2013-06-09 20:02:00,76.0,72.0,-100.00,SSW,195,7.0,17.0,86,0.00,,,0.00,74.000000,,2013-06-10 00:02:00,
2013-06-09 20:32:00,76.0,72.0,-100.00,South,178,8.0,15.0,86,0.00,,,0.00,26.000000,,2013-06-10 00:32:00,
2013-06-09 20:42:00,76.0,72.0,-100.00,South,178,8.0,15.0,86,0.00,,,0.00,26.000000,,2013-06-10 00:42:00,
2013-06-09 20:52:00,76.0,72.0,-100.00,South,178,8.0,15.0,86,0.00,,,0.00,26.000000,,2013-06-10 00:52:00,
2013-06-09 21:03:00,76.0,72.0,-100.00,South,178,8.0,15.0,86,0.00,,,0.00,26.000000,,2013-06-10 01:03:00,
2013-06-09 21:32:00,75.0,68.0,-100.00,South,170,9.0,17.0,80,0.00,,,0.00,1.000000,,2013-06-10 01:32:00,
2013-06-09 21:43:00,75.0,68.0,-100.00,South,170,9.0,17.0,80,0.00,,,0.00,1.000000,,2013-06-10 01:43:00,
2013-06-09 21:52:00,75.0,68.0,-100.00,South,170,9.0,17.0,80,0.00,,,0.00,1.000000,,2013-06-10 01:52:00,
2013-06-09 22:02:00,75.0,68.0,-100.00,South,170,9.0,17.0,80,0.00,,,0.00,1.000000,,2013-06-10 02:02:00,
2013-06-09 22:32:00,75.0,68.0,-100.00,South,171,8.0,18.0,78,0.00,,,0.00,0.000000,,2013-06-10 02:32:00,
2013-06-09 22:42:00,75.0,68.0,-100.00,South,171,8.0,18.0,78,0.00,,,0.00,0.000000,,2013-06-10 02:42:00,
2013-06-09 22:52:00,75.0,68.0,-100.00,South,171,8.0,18.0,78,0.00,,,0.00,0.000000,,2013-06-10 02:52:00,
2013-06-09 23:02:00,75.0,68.0,-100.00,South,171,8.0,18.0,78,0.00,,,0.00,0.000000,,2013-06-10 03:02:00,
2013-06-09 23:33:00,75.0,70.0,-100.00,South,174,10.0,17.0,85,0.00,,,0.00,0.000000,,2013-06-10 03:33:00,
2013-06-09 23:43:00,75.0,70.0,-100.00,South,174,10.0,17.0,85,0.00,,,0.00,0.000000,,2013-06-10 03:43:00,
2013-06-09 23:53:00,75.0,70.0,-100.00,South,174,10.0,17.0,85,0.00,,,0.00,0.000000,,2013-06-10 03:53:00,